createdAt,value
2019-03-23T00:00:04.039Z,7.28
2019-03-23T00:01:04.033Z,7.23
2019-03-23T00:02:04.031Z,7.12
2019-03-23T00:03:04.004Z,7.10
2019-03-23T00:04:04.013Z,6.98
2019-03-23T00:05:04.012Z,6.98
2019-03-23T00:06:03.966Z,6.98
2019-03-23T00:07:03.975Z,6.92
2019-03-23T00:08:03.945Z,6.88
2019-03-23T00:09:03.950Z,6.92
2019-03-23T00:10:03.956Z,6.99
2019-03-23T00:11:03.930Z,7.06
2019-03-23T00:12:03.944Z,6.99
2019-03-23T00:13:03.920Z,7.03
2019-03-23T00:14:03.877Z,7.12
2019-03-23T00:15:03.890Z,7.13
2019-03-23T00:16:03.852Z,7.09
2019-03-23T00:17:03.865Z,7.12
2019-03-23T00:18:03.849Z,7.06
2019-03-23T00:19:03.832Z,7.10
2019-03-23T00:20:03.809Z,7.16
2019-03-23T00:21:03.801Z,7.07
2019-03-23T00:22:03.827Z,6.92
2019-03-23T00:23:03.808Z,6.95
2019-03-23T00:24:03.761Z,6.99
2019-03-23T00:25:03.786Z,6.95
2019-03-23T00:26:03.740Z,6.94
2019-03-23T00:27:03.777Z,6.91
2019-03-23T00:28:03.719Z,6.84
2019-03-23T00:29:03.721Z,6.89
2019-03-23T00:30:03.699Z,6.74
2019-03-23T00:31:03.718Z,6.84
2019-03-23T00:32:03.707Z,6.79
2019-03-23T00:33:03.667Z,6.76
2019-03-23T00:34:03.650Z,6.79
2019-03-23T00:35:03.637Z,6.80
2019-03-23T00:36:03.650Z,6.74
2019-03-23T00:37:03.622Z,6.79
2019-03-23T00:38:03.605Z,6.80
2019-03-23T00:39:03.601Z,6.73
2019-03-23T00:40:03.606Z,6.62
2019-03-23T00:41:03.571Z,6.67
2019-03-23T00:42:03.564Z,6.61
2019-03-23T00:43:03.580Z,6.61
2019-03-23T00:44:03.541Z,6.67
2019-03-23T00:45:03.527Z,6.66
2019-03-23T00:46:03.548Z,6.62
2019-03-23T00:47:03.533Z,6.66
2019-03-23T00:48:03.546Z,6.62
2019-03-23T00:49:03.509Z,6.58
2019-03-23T00:50:03.470Z,6.69
2019-03-23T00:51:03.461Z,6.67
2019-03-23T00:52:03.472Z,6.76
2019-03-23T00:53:03.435Z,6.74
2019-03-23T00:54:03.454Z,6.74
2019-03-23T00:55:03.451Z,6.87
2019-03-23T00:56:03.403Z,6.71
2019-03-23T00:57:03.410Z,6.84
2019-03-23T00:58:03.428Z,6.81
2019-03-23T00:59:03.419Z,6.74
2019-03-23T01:00:03.364Z,6.73
2019-03-23T01:01:03.370Z,6.64
2019-03-23T01:02:03.336Z,6.59
2019-03-23T01:03:03.352Z,6.70
2019-03-23T01:04:03.337Z,6.61
2019-03-23T01:05:03.349Z,6.61
2019-03-23T01:06:03.318Z,6.56
2019-03-23T01:07:03.280Z,6.48
2019-03-23T01:08:03.273Z,6.52
2019-03-23T01:09:03.258Z,6.49
2019-03-23T01:10:03.268Z,6.37
2019-03-23T01:11:03.238Z,6.27
2019-03-23T01:12:03.259Z,6.28
2019-03-23T01:13:03.246Z,6.31
2019-03-23T01:14:03.251Z,6.17
2019-03-23T01:15:03.198Z,6.18
2019-03-23T01:16:03.201Z,6.08
2019-03-23T01:17:03.221Z,6.11
2019-03-23T01:18:03.213Z,6.18
2019-03-23T01:19:03.193Z,6.12
2019-03-23T01:20:03.168Z,6.22
2019-03-23T01:21:03.151Z,6.17
2019-03-23T01:22:03.118Z,6.21
2019-03-23T01:23:03.154Z,6.17
2019-03-23T01:24:03.091Z,6.28
2019-03-23T01:25:03.105Z,6.30
2019-03-23T01:26:03.192Z,6.40
2019-03-23T01:27:03.074Z,6.37
2019-03-23T01:28:03.045Z,6.41
2019-03-23T01:29:03.033Z,6.44
2019-03-23T01:30:03.028Z,6.41
2019-03-23T01:31:03.041Z,6.37
2019-03-23T01:32:02.999Z,6.30
2019-03-23T01:33:02.993Z,6.28
2019-03-23T01:34:02.983Z,6.31
2019-03-23T01:35:02.988Z,6.31
2019-03-23T01:36:02.954Z,6.44
2019-03-23T01:37:03.213Z,6.46
2019-03-23T01:38:02.936Z,6.49
2019-03-23T01:39:02.922Z,6.52
2019-03-23T01:40:02.909Z,6.52
2019-03-23T01:41:02.924Z,6.44
2019-03-23T01:42:02.911Z,6.44
2019-03-23T01:43:02.876Z,6.49
2019-03-23T01:44:02.880Z,6.49
2019-03-23T01:45:02.853Z,6.61
2019-03-23T01:46:02.841Z,6.46
2019-03-23T01:47:02.854Z,6.46
2019-03-23T01:48:02.819Z,6.54
2019-03-23T01:49:02.810Z,6.43
2019-03-23T01:50:02.800Z,6.41
2019-03-23T01:51:02.790Z,6.37
2019-03-23T01:52:02.799Z,6.49
2019-03-23T01:53:02.763Z,6.46
2019-03-23T01:54:02.776Z,6.61
2019-03-23T01:55:02.745Z,6.62
2019-03-23T01:56:02.734Z,6.67
2019-03-23T01:57:02.722Z,6.59
2019-03-23T01:58:02.736Z,6.55
2019-03-23T01:59:02.696Z,6.56
2019-03-23T02:00:02.686Z,6.48
2019-03-23T02:01:02.674Z,6.52
2019-03-23T02:02:02.663Z,6.44
2019-03-23T02:03:02.673Z,6.43
2019-03-23T02:04:02.642Z,6.40
2019-03-23T02:05:02.631Z,6.36
2019-03-23T02:06:02.678Z,6.38
2019-03-23T02:07:13.204Z,6.51
2019-03-23T02:08:03.600Z,6.38
2019-03-23T02:09:02.585Z,6.46
2019-03-23T02:10:02.573Z,6.48
2019-03-23T02:11:02.590Z,6.48
2019-03-23T02:12:02.557Z,6.48
2019-03-23T02:13:02.539Z,6.49
2019-03-23T02:14:02.525Z,6.51
2019-03-23T02:15:02.515Z,6.52
2019-03-23T02:16:02.529Z,6.56
2019-03-23T02:17:02.492Z,6.48
2019-03-23T02:18:02.481Z,6.54
2019-03-23T02:19:02.500Z,6.49
2019-03-23T02:20:02.464Z,6.52
2019-03-23T02:21:02.447Z,6.46
2019-03-23T02:22:02.445Z,6.46
2019-03-23T02:23:02.430Z,6.43
2019-03-23T02:24:02.436Z,6.40
2019-03-23T02:25:02.404Z,6.43
2019-03-23T02:26:02.390Z,6.30
2019-03-23T02:27:02.382Z,6.43
2019-03-23T02:28:02.368Z,6.48
2019-03-23T02:29:02.380Z,6.48
2019-03-23T02:30:02.354Z,6.46
2019-03-23T02:31:02.342Z,6.52
2019-03-23T02:32:02.330Z,6.41
2019-03-23T02:33:02.346Z,6.30
2019-03-23T02:34:02.316Z,6.25
2019-03-23T02:35:02.297Z,6.28
2019-03-23T02:36:02.285Z,6.15
2019-03-23T02:37:02.271Z,6.12
2019-03-23T02:38:02.281Z,6.11
2019-03-23T02:39:02.251Z,6.15
2019-03-23T02:40:02.240Z,6.14
2019-03-23T02:41:02.254Z,6.18
2019-03-23T02:42:02.244Z,6.18
2019-03-23T02:43:02.205Z,6.14
2019-03-23T02:44:02.191Z,6.15
2019-03-23T02:45:02.185Z,6.18
2019-03-23T02:46:02.172Z,6.15
2019-03-23T02:47:02.189Z,6.04
2019-03-23T02:48:02.151Z,5.99
2019-03-23T02:49:02.140Z,5.89
2019-03-23T02:50:02.130Z,5.85
2019-03-23T02:51:02.119Z,5.74
2019-03-23T02:52:02.130Z,5.72
2019-03-23T02:53:02.103Z,5.75
2019-03-23T02:54:02.083Z,5.75
2019-03-23T02:55:02.091Z,5.76
2019-03-23T02:56:02.062Z,5.74
2019-03-23T02:57:02.076Z,5.68
2019-03-23T02:58:02.037Z,5.65
2019-03-23T02:59:02.028Z,5.58
2019-03-23T03:00:02.013Z,5.60
2019-03-23T03:01:02.007Z,5.56
2019-03-23T03:02:02.014Z,5.51
2019-03-23T03:03:01.977Z,5.49
2019-03-23T03:04:01.980Z,5.56
2019-03-23T03:05:01.963Z,5.53
2019-03-23T03:06:01.951Z,5.51
2019-03-23T03:07:01.960Z,5.49
2019-03-23T03:08:01.951Z,5.53
2019-03-23T03:09:01.910Z,5.56
2019-03-23T03:10:01.909Z,5.51
2019-03-23T03:11:01.905Z,5.48
2019-03-23T03:12:01.892Z,5.46
2019-03-23T03:13:01.878Z,5.43
2019-03-23T03:14:01.900Z,5.46
2019-03-23T03:15:01.851Z,5.42
2019-03-23T03:16:01.836Z,5.45
2019-03-23T03:17:01.827Z,5.43
2019-03-23T03:18:01.813Z,5.35
2019-03-23T03:19:01.843Z,5.39
2019-03-23T03:20:01.788Z,5.40
2019-03-23T03:21:01.779Z,5.36
2019-03-23T03:22:01.769Z,5.36
2019-03-23T03:23:01.760Z,5.31
2019-03-23T03:24:01.767Z,5.31
2019-03-23T03:25:01.737Z,5.31
2019-03-23T03:26:01.724Z,5.42
2019-03-23T03:27:01.742Z,5.30
2019-03-23T03:28:01.701Z,5.30
2019-03-23T03:29:01.689Z,5.31
2019-03-23T03:30:01.711Z,5.33
2019-03-23T03:31:01.725Z,5.22
2019-03-23T03:32:01.658Z,5.27
2019-03-23T03:33:01.660Z,5.27
2019-03-23T03:34:01.649Z,5.21
2019-03-23T03:35:01.736Z,5.25
2019-03-23T03:36:01.608Z,5.20
2019-03-23T03:37:01.599Z,5.13
2019-03-23T03:38:01.587Z,5.15
2019-03-23T03:39:01.578Z,5.17
2019-03-23T03:40:01.590Z,5.24
2019-03-23T03:41:01.551Z,5.20
2019-03-23T03:42:01.541Z,5.22
2019-03-23T03:43:01.556Z,5.20
2019-03-23T03:44:01.549Z,5.25
2019-03-23T03:45:01.508Z,5.17
2019-03-23T03:46:01.499Z,5.24
2019-03-23T03:47:01.489Z,5.18
2019-03-23T03:48:01.481Z,5.17
2019-03-23T03:49:11.735Z,5.20
2019-03-23T03:50:02.451Z,5.09
2019-03-23T03:51:01.444Z,5.10
2019-03-23T03:52:01.435Z,5.15
2019-03-23T03:53:01.447Z,5.15
2019-03-23T03:54:01.411Z,5.10
2019-03-23T03:55:01.422Z,5.15
2019-03-23T03:56:01.385Z,5.09
2019-03-23T03:57:01.376Z,5.22
2019-03-23T03:58:01.396Z,5.12
2019-03-23T03:59:01.361Z,5.12
2019-03-23T04:00:01.337Z,5.12
2019-03-23T04:01:01.335Z,5.09
2019-03-23T04:02:01.320Z,5.06
2019-03-23T04:03:01.346Z,5.06
2019-03-23T04:04:01.297Z,5.04
2019-03-23T04:05:01.345Z,4.97
2019-03-23T04:06:01.270Z,4.99
2019-03-23T04:07:01.259Z,5.00
2019-03-23T04:08:10.896Z,4.82
2019-03-23T04:09:02.244Z,4.84
2019-03-23T04:10:01.244Z,4.78
2019-03-23T04:11:01.215Z,4.67
2019-03-23T04:12:01.209Z,4.80
2019-03-23T04:13:01.220Z,4.73
2019-03-23T04:14:01.223Z,4.72
2019-03-23T04:15:01.172Z,4.72
2019-03-23T04:16:01.166Z,4.73
2019-03-23T04:17:01.151Z,4.70
2019-03-23T04:18:01.140Z,4.60
2019-03-23T04:19:01.152Z,4.54
2019-03-23T04:20:01.115Z,4.55
2019-03-23T04:21:01.105Z,4.51
2019-03-23T04:22:01.100Z,4.54
2019-03-23T04:23:01.116Z,4.45
2019-03-23T04:24:01.076Z,4.55
2019-03-23T04:25:01.062Z,4.42
2019-03-23T04:26:01.056Z,4.41
2019-03-23T04:27:01.041Z,4.40
2019-03-23T04:28:01.052Z,4.44
2019-03-23T04:29:01.013Z,4.40
2019-03-23T04:30:01.001Z,4.29
2019-03-23T04:31:01.018Z,4.32
2019-03-23T04:32:00.982Z,4.32
2019-03-23T04:33:00.972Z,4.34
2019-03-23T04:34:00.963Z,4.32
2019-03-23T04:35:00.949Z,4.32
2019-03-23T04:36:00.981Z,4.27
2019-03-23T04:37:00.934Z,4.20
2019-03-23T04:38:00.920Z,4.22
2019-03-23T04:39:00.902Z,4.29
2019-03-23T04:40:00.895Z,4.30
2019-03-23T04:41:00.909Z,4.14
2019-03-23T04:42:00.867Z,4.18
2019-03-23T04:43:00.860Z,4.11
2019-03-23T04:44:00.849Z,4.09
2019-03-23T04:45:00.855Z,4.08
2019-03-23T04:46:00.821Z,4.06
2019-03-23T04:47:00.817Z,4.11
2019-03-23T04:48:00.818Z,4.06
2019-03-23T04:49:00.790Z,4.06
2019-03-23T04:50:00.783Z,3.97
2019-03-23T04:51:00.767Z,4.02
2019-03-23T04:52:00.754Z,3.97
2019-03-23T04:53:00.779Z,4.04
2019-03-23T04:54:00.737Z,3.93
2019-03-23T04:55:00.724Z,3.94
2019-03-23T04:56:00.711Z,3.94
2019-03-23T04:57:00.703Z,3.96
2019-03-23T04:58:00.714Z,3.90
2019-03-23T04:59:00.690Z,3.91
2019-03-23T05:00:00.666Z,3.84
2019-03-23T05:01:00.691Z,3.86
2019-03-23T05:02:00.647Z,3.86
2019-03-23T05:03:00.635Z,3.83
2019-03-23T05:04:00.624Z,3.79
2019-03-23T05:05:00.617Z,3.88
2019-03-23T05:06:00.640Z,3.78
2019-03-23T05:07:00.589Z,3.84
2019-03-23T05:08:00.579Z,3.83
2019-03-23T05:09:00.565Z,3.84
2019-03-23T05:10:00.558Z,3.84
2019-03-23T05:11:00.569Z,3.84
2019-03-23T05:12:00.541Z,3.79
2019-03-23T05:13:00.522Z,3.90
2019-03-23T05:14:00.512Z,3.93
2019-03-23T05:15:00.525Z,3.91
2019-03-23T05:16:00.494Z,3.88
2019-03-23T05:17:00.479Z,3.87
2019-03-23T05:18:00.492Z,3.88
2019-03-23T05:19:00.484Z,3.87
2019-03-23T05:20:00.442Z,3.90
2019-03-23T05:21:00.432Z,3.93
2019-03-23T05:22:00.420Z,3.86
2019-03-23T05:23:00.415Z,3.79
2019-03-23T05:24:00.433Z,3.84
2019-03-23T05:25:00.453Z,3.84
2019-03-23T05:26:00.375Z,3.86
2019-03-23T05:27:00.363Z,3.80
2019-03-23T05:28:00.359Z,3.87
2019-03-23T05:29:00.367Z,3.80
2019-03-23T05:30:00.366Z,3.86
2019-03-23T05:31:00.322Z,3.88
2019-03-23T05:32:00.308Z,3.98
2019-03-23T05:33:00.318Z,4.00
2019-03-23T05:34:00.291Z,4.04
2019-03-23T05:35:00.363Z,4.09
2019-03-23T05:36:00.268Z,4.15
2019-03-23T05:37:00.253Z,4.14
2019-03-23T05:38:00.245Z,4.12
2019-03-23T05:39:00.232Z,4.27
2019-03-23T05:40:00.343Z,4.32
2019-03-23T05:41:00.207Z,4.27
2019-03-23T05:42:00.200Z,4.29
2019-03-23T05:43:00.189Z,4.32
2019-03-23T05:44:00.196Z,4.40
2019-03-23T05:45:00.344Z,4.40
2019-03-23T05:46:00.151Z,4.42
2019-03-23T05:47:00.145Z,4.48
2019-03-23T05:48:00.133Z,4.52
2019-03-23T05:49:00.132Z,4.52
2019-03-23T05:50:00.191Z,4.54
2019-03-23T05:51:00.118Z,4.52
2019-03-23T05:52:01.557Z,4.58
2019-03-23T05:53:00.074Z,4.66
2019-03-23T05:54:00.061Z,4.69
2019-03-23T05:55:00.055Z,4.69
2019-03-23T05:56:00.069Z,4.78
2019-03-23T05:57:00.029Z,4.73
2019-03-23T05:58:00.019Z,4.91
2019-03-23T05:59:00.009Z,4.86
2019-03-23T06:00:00.023Z,4.84
2019-03-23T06:00:59.983Z,4.77
2019-03-23T06:01:59.979Z,4.75
2019-03-23T06:02:59.963Z,4.80
2019-03-23T06:03:59.950Z,4.86
2019-03-23T06:04:59.965Z,4.80
2019-03-23T06:05:59.938Z,4.78
2019-03-23T06:06:59.916Z,4.84
2019-03-23T06:07:59.908Z,4.77
2019-03-23T06:08:59.914Z,4.86
2019-03-23T06:09:59.896Z,4.80
2019-03-23T06:10:59.874Z,4.80
2019-03-23T06:11:59.864Z,4.80
2019-03-23T06:12:59.877Z,4.91
2019-03-23T06:13:59.843Z,5.02
2019-03-23T06:14:59.825Z,4.97
2019-03-23T06:15:59.844Z,5.04
2019-03-23T06:16:59.831Z,4.97
2019-03-23T06:17:59.877Z,5.00
2019-03-23T06:18:59.781Z,4.97
2019-03-23T06:19:59.774Z,4.97
2019-03-23T06:20:59.759Z,5.10
2019-03-23T06:21:59.779Z,5.10
2019-03-23T06:22:59.735Z,5.17
2019-03-23T06:23:59.728Z,5.20
2019-03-23T06:24:59.717Z,5.35
2019-03-23T06:25:59.736Z,5.25
2019-03-23T06:26:59.719Z,5.30
2019-03-23T06:27:59.680Z,5.30
2019-03-23T06:28:59.668Z,5.38
2019-03-23T06:29:59.686Z,5.42
2019-03-23T06:30:59.652Z,5.42
2019-03-23T06:31:59.639Z,5.40
2019-03-23T06:32:59.624Z,5.46
2019-03-23T06:33:59.613Z,5.48
2019-03-23T06:34:59.631Z,5.51
2019-03-23T06:35:59.617Z,5.57
2019-03-23T06:36:59.581Z,5.61
2019-03-23T06:37:59.568Z,5.63
2019-03-23T06:39:05.443Z,5.57
2019-03-23T06:40:00.547Z,5.68
2019-03-23T06:40:59.560Z,5.72
2019-03-23T06:41:59.523Z,5.67
2019-03-23T06:43:00.113Z,5.68
2019-03-23T06:43:59.500Z,5.82
2019-03-23T06:44:59.494Z,5.94
2019-03-23T06:45:59.480Z,5.93
2019-03-23T06:46:59.498Z,5.99
2019-03-23T06:47:59.461Z,6.00
2019-03-23T06:48:59.444Z,5.94
2019-03-23T06:49:59.437Z,6.04
2019-03-23T06:50:59.425Z,5.99
2019-03-23T06:51:59.441Z,5.97
2019-03-23T06:52:59.403Z,6.00
2019-03-23T06:53:59.426Z,6.09
2019-03-23T06:54:59.394Z,6.15
2019-03-23T06:55:59.367Z,6.11
2019-03-23T06:56:59.355Z,6.22
2019-03-23T06:57:59.376Z,6.28
2019-03-23T06:58:59.332Z,6.36
2019-03-23T06:59:59.324Z,6.44
2019-03-23T07:00:59.314Z,6.46
2019-03-23T07:01:59.302Z,6.51
2019-03-23T07:02:59.315Z,6.70
2019-03-23T07:03:59.283Z,6.73
2019-03-23T07:04:59.264Z,6.79
2019-03-23T07:05:59.254Z,6.87
2019-03-23T07:06:59.243Z,6.95
2019-03-23T07:07:59.257Z,7.02
2019-03-23T07:08:59.220Z,7.09
2019-03-23T07:09:59.212Z,7.17
2019-03-23T07:10:59.729Z,7.28
2019-03-23T07:11:59.217Z,7.43
2019-03-23T07:12:59.181Z,7.46
2019-03-23T07:13:59.165Z,7.50
2019-03-23T07:14:59.153Z,7.60
2019-03-23T07:15:59.147Z,7.67
2019-03-23T07:16:59.156Z,7.82
2019-03-23T07:17:59.123Z,7.86
2019-03-23T07:18:59.109Z,7.92
2019-03-23T07:19:59.122Z,7.98
2019-03-23T07:20:59.093Z,7.97
2019-03-23T07:21:59.100Z,8.16
2019-03-23T07:22:59.063Z,8.20
2019-03-23T07:23:59.056Z,8.18
2019-03-23T07:24:59.044Z,8.33
2019-03-23T07:25:59.060Z,8.41
2019-03-23T07:26:59.022Z,8.44
2019-03-23T07:27:59.011Z,8.50
2019-03-23T07:28:59.001Z,8.50
2019-03-23T07:29:58.985Z,8.58
2019-03-23T07:30:59.009Z,8.70
2019-03-23T07:32:05.594Z,8.74
2019-03-23T07:32:59.951Z,8.81
2019-03-23T07:33:58.944Z,8.98
2019-03-23T07:34:58.930Z,8.96
2019-03-23T07:35:58.942Z,8.94
2019-03-23T07:36:58.909Z,8.89
2019-03-23T07:37:58.898Z,8.91
2019-03-23T07:38:58.883Z,8.98
2019-03-23T07:39:58.874Z,9.04
2019-03-23T07:40:58.883Z,9.17
2019-03-23T07:41:58.876Z,9.24
2019-03-23T07:42:58.838Z,9.29
2019-03-23T07:43:58.824Z,9.26
2019-03-23T07:44:58.820Z,9.46
2019-03-23T07:45:58.817Z,9.54
2019-03-23T07:46:58.819Z,9.64
2019-03-23T07:47:58.784Z,9.72
2019-03-23T07:48:58.778Z,9.78
2019-03-23T07:49:58.759Z,9.91
2019-03-23T07:50:58.750Z,9.89
2019-03-23T07:51:58.764Z,9.81
2019-03-23T07:52:58.725Z,9.87
2019-03-23T07:53:58.716Z,9.93
2019-03-23T07:54:58.726Z,10.04
2019-03-23T07:55:58.695Z,10.17
2019-03-23T07:56:58.679Z,10.32
2019-03-23T07:57:58.695Z,10.22
2019-03-23T07:58:58.657Z,10.29
2019-03-23T07:59:58.647Z,10.23
2019-03-23T08:00:58.662Z,10.36
2019-03-23T08:01:58.622Z,10.45
2019-03-23T08:02:58.617Z,10.41
2019-03-23T08:03:58.600Z,10.42
2019-03-23T08:04:58.590Z,10.36
2019-03-23T08:05:58.601Z,10.36
2019-03-23T08:06:58.567Z,10.40
2019-03-23T08:07:58.562Z,10.36
2019-03-23T08:08:58.551Z,10.48
2019-03-23T08:09:58.548Z,10.40
2019-03-23T08:10:58.547Z,10.55
2019-03-23T08:11:58.509Z,10.61
2019-03-23T08:12:58.548Z,10.78
2019-03-23T08:13:58.493Z,10.78
2019-03-23T08:14:58.482Z,10.96
2019-03-23T08:15:58.498Z,11.02
2019-03-23T08:16:58.472Z,11.15
2019-03-23T08:17:58.450Z,11.25
2019-03-23T08:18:58.443Z,11.37
2019-03-23T08:19:58.448Z,11.35
2019-03-23T08:20:58.463Z,11.43
2019-03-23T08:21:58.401Z,11.51
2019-03-23T08:22:58.498Z,11.60
2019-03-23T08:23:58.373Z,11.61
2019-03-23T08:24:58.390Z,11.61
2019-03-23T08:25:58.355Z,11.65
2019-03-23T08:26:58.341Z,11.70
2019-03-23T08:27:58.362Z,11.83
2019-03-23T08:28:58.318Z,11.90
2019-03-23T08:29:58.334Z,12.02
2019-03-23T08:30:58.297Z,12.10
2019-03-23T08:31:58.287Z,12.19
2019-03-23T08:32:58.298Z,12.28
2019-03-23T08:33:58.265Z,12.29
2019-03-23T08:34:58.251Z,12.28
2019-03-23T08:35:58.244Z,12.41
2019-03-23T08:36:58.230Z,12.53
2019-03-23T08:37:58.247Z,12.56
2019-03-23T08:38:58.209Z,12.68
2019-03-23T08:39:58.201Z,12.75
2019-03-23T08:40:58.188Z,12.83
2019-03-23T08:41:58.176Z,12.92
2019-03-23T08:42:58.186Z,13.10
2019-03-23T08:43:58.152Z,12.95
2019-03-23T08:44:58.139Z,13.11
2019-03-23T08:45:58.131Z,13.05
2019-03-23T08:46:58.121Z,12.89
2019-03-23T08:47:58.180Z,12.96
2019-03-23T08:48:58.101Z,13.11
2019-03-23T08:49:59.661Z,13.30
2019-03-23T08:50:58.113Z,13.26
2019-03-23T08:51:58.059Z,13.36
2019-03-23T08:52:58.052Z,13.44
2019-03-23T08:53:58.037Z,13.67
2019-03-23T08:54:58.050Z,13.54
2019-03-23T08:55:58.020Z,13.63
2019-03-23T08:56:58.011Z,13.73
2019-03-23T08:57:57.999Z,13.84
2019-03-23T08:58:57.982Z,13.85
2019-03-23T08:59:57.997Z,13.99
2019-03-23T09:00:58.013Z,14.21
2019-03-23T09:01:57.947Z,14.21
2019-03-23T09:02:57.943Z,14.15
2019-03-23T09:03:57.924Z,14.18
2019-03-23T09:04:57.938Z,14.09
2019-03-23T09:05:57.902Z,14.15
2019-03-23T09:06:57.897Z,14.43
2019-03-23T09:07:57.881Z,14.52
2019-03-23T09:08:57.891Z,14.55
2019-03-23T09:09:59.340Z,14.52
2019-03-23T09:10:57.846Z,14.32
2019-03-23T09:11:57.850Z,14.45
2019-03-23T09:12:57.827Z,14.43
2019-03-23T09:13:57.840Z,14.47
2019-03-23T09:14:57.798Z,14.68
2019-03-23T09:15:57.791Z,14.81
2019-03-23T09:16:57.776Z,14.92
2019-03-23T09:17:57.769Z,14.78
2019-03-23T09:18:57.768Z,14.80
2019-03-23T09:19:57.753Z,14.78
2019-03-23T09:20:57.730Z,14.86
2019-03-23T09:21:57.752Z,15.01
2019-03-23T09:22:57.712Z,15.19
2019-03-23T09:23:57.708Z,15.19
2019-03-23T09:24:57.690Z,15.01
2019-03-23T09:25:57.678Z,14.94
2019-03-23T09:26:57.687Z,15.13
2019-03-23T09:27:57.673Z,15.28
2019-03-23T09:28:57.645Z,15.38
2019-03-23T09:29:57.633Z,15.49
2019-03-23T09:30:57.635Z,15.51
2019-03-23T09:31:57.634Z,15.56
2019-03-23T09:32:57.602Z,15.68
2019-03-23T09:33:57.587Z,15.64
2019-03-23T09:34:57.595Z,15.67
2019-03-23T09:35:57.567Z,15.76
2019-03-23T09:36:57.578Z,15.86
2019-03-23T09:37:57.541Z,15.86
2019-03-23T09:38:57.532Z,15.68
2019-03-23T09:39:58.750Z,15.53
2019-03-23T09:40:57.508Z,15.35
2019-03-23T09:41:57.515Z,15.57
2019-03-23T09:42:57.486Z,15.59
2019-03-23T09:43:57.471Z,15.54
2019-03-23T09:44:57.465Z,15.41
2019-03-23T09:45:57.448Z,15.35
2019-03-23T09:46:57.479Z,15.32
2019-03-23T09:47:57.431Z,15.46
2019-03-23T09:48:57.415Z,15.56
2019-03-23T09:49:57.404Z,15.54
2019-03-23T09:50:57.397Z,15.78
2019-03-23T09:51:57.410Z,15.96
2019-03-23T09:52:57.392Z,16.20
2019-03-23T09:53:57.362Z,15.86
2019-03-23T09:54:57.353Z,15.90
2019-03-23T09:55:57.340Z,16.20
2019-03-23T09:56:59.515Z,16.02
2019-03-23T09:57:57.342Z,16.07
2019-03-23T09:58:57.311Z,16.07
2019-03-23T09:59:57.291Z,15.75
2019-03-23T10:00:57.284Z,15.84
2019-03-23T10:01:57.275Z,15.64
2019-03-23T10:02:57.279Z,15.76
2019-03-23T10:03:57.246Z,15.67
2019-03-23T10:04:57.235Z,15.96
2019-03-23T10:05:57.226Z,16.31
2019-03-23T10:06:57.213Z,16.61
2019-03-23T10:07:57.230Z,16.89
2019-03-23T10:08:57.233Z,16.93
2019-03-23T10:09:57.184Z,17.03
2019-03-23T10:10:57.172Z,16.82
2019-03-23T10:11:59.131Z,16.31
2019-03-23T10:12:57.147Z,16.12
2019-03-23T10:13:57.160Z,16.27
2019-03-23T10:14:57.122Z,16.20
2019-03-23T10:15:57.117Z,16.46
2019-03-23T10:16:57.105Z,16.57
2019-03-23T10:17:57.115Z,16.81
2019-03-23T10:18:57.080Z,16.60
2019-03-23T10:19:57.072Z,16.71
2019-03-23T10:20:57.059Z,16.76
2019-03-23T10:21:57.046Z,16.63
2019-03-23T10:22:57.053Z,16.42
2019-03-23T10:23:57.029Z,16.41
2019-03-23T10:24:57.007Z,16.39
2019-03-23T10:25:56.997Z,16.23
2019-03-23T10:26:56.993Z,16.28
2019-03-23T10:27:56.995Z,16.49
2019-03-23T10:28:56.966Z,16.60
2019-03-23T10:29:56.979Z,16.86
2019-03-23T10:30:56.962Z,17.04
2019-03-23T10:31:56.934Z,17.21
2019-03-23T10:32:56.937Z,17.12
2019-03-23T10:33:56.928Z,16.97
2019-03-23T10:34:56.903Z,16.83
2019-03-23T10:35:56.884Z,16.97
2019-03-23T10:36:56.887Z,17.07
2019-03-23T10:37:56.888Z,17.12
2019-03-23T10:38:56.854Z,17.04
2019-03-23T10:39:56.874Z,16.91
2019-03-23T10:40:56.832Z,16.70
2019-03-23T10:41:56.849Z,16.57
2019-03-23T10:42:56.806Z,16.64
2019-03-23T10:43:56.799Z,16.71
2019-03-23T10:44:56.786Z,16.82
2019-03-23T10:45:56.772Z,16.85
2019-03-23T10:46:56.784Z,16.79
2019-03-23T10:48:56.744Z,16.85
2019-03-23T10:49:56.733Z,16.86
2019-03-23T10:50:56.742Z,16.53
2019-03-23T10:51:56.705Z,16.31
2019-03-23T10:52:56.697Z,16.28
2019-03-23T10:53:56.689Z,16.00
2019-03-23T10:54:56.676Z,16.33
2019-03-23T10:55:56.690Z,16.50
2019-03-23T10:56:56.648Z,16.82
2019-03-23T10:57:56.639Z,17.00
2019-03-23T10:58:56.658Z,16.91
2019-03-23T10:59:56.616Z,16.52
2019-03-23T11:00:56.606Z,16.45
2019-03-23T11:01:56.595Z,16.27
2019-03-23T11:02:56.586Z,16.28
2019-03-23T11:03:56.600Z,16.48
2019-03-23T11:04:56.567Z,16.52
2019-03-23T11:05:56.552Z,15.94
2019-03-23T11:06:56.539Z,15.87
2019-03-23T11:07:56.530Z,15.93
2019-03-23T11:08:56.559Z,15.96
2019-03-23T11:09:56.506Z,16.11
2019-03-23T11:10:56.497Z,16.12
2019-03-23T11:11:56.484Z,16.39
2019-03-23T11:12:56.496Z,16.24
2019-03-23T11:13:56.460Z,15.96
2019-03-23T11:14:56.453Z,15.64
2019-03-23T11:15:56.440Z,15.51
2019-03-23T11:16:56.426Z,15.56
2019-03-23T11:17:56.450Z,15.38
2019-03-23T11:18:56.401Z,15.51
2019-03-23T11:19:58.442Z,15.41
2019-03-23T11:20:56.382Z,15.49
2019-03-23T11:21:56.367Z,15.32
2019-03-23T11:22:56.403Z,14.86
2019-03-23T11:23:56.347Z,14.61
2019-03-23T11:24:56.337Z,14.51
2019-03-23T11:25:56.323Z,14.54
2019-03-23T11:26:56.315Z,14.29
2019-03-23T11:27:56.319Z,14.24
2019-03-23T11:28:56.297Z,14.17
2019-03-23T11:29:56.278Z,14.43
2019-03-23T11:30:56.271Z,14.70
2019-03-23T11:31:56.261Z,14.65
2019-03-23T11:32:56.271Z,14.46
2019-03-23T11:33:56.260Z,14.51
2019-03-23T11:34:56.252Z,14.54
2019-03-23T11:35:57.979Z,14.43
2019-03-23T11:36:56.203Z,14.61
2019-03-23T11:37:56.444Z,14.25
2019-03-23T11:38:56.200Z,14.06
2019-03-23T11:39:56.165Z,14.10
2019-03-23T11:40:56.168Z,14.18
2019-03-23T11:41:56.148Z,14.14
2019-03-23T11:42:56.132Z,13.97
2019-03-23T11:43:56.153Z,13.88
2019-03-23T11:44:56.183Z,13.81
2019-03-23T11:45:56.100Z,13.71
2019-03-23T11:46:56.086Z,13.54
2019-03-23T11:47:56.105Z,13.79
2019-03-23T11:48:56.070Z,13.73
2019-03-23T11:49:56.058Z,13.77
2019-03-23T11:50:56.067Z,13.52
2019-03-23T11:51:56.034Z,13.44
2019-03-23T11:52:56.026Z,13.45
2019-03-23T11:53:56.012Z,13.28
2019-03-23T11:54:56.003Z,13.28
2019-03-23T11:55:56.013Z,13.03
2019-03-23T11:56:55.981Z,12.78
2019-03-23T11:57:55.968Z,12.62
2019-03-23T11:58:55.967Z,12.60
2019-03-23T11:59:55.948Z,12.34
2019-03-23T12:00:55.936Z,12.42
2019-03-23T12:01:55.922Z,12.62
2019-03-23T12:02:55.931Z,12.29
2019-03-23T12:03:55.898Z,12.38
2019-03-23T12:04:55.887Z,12.49
2019-03-23T12:05:55.876Z,12.54
2019-03-23T12:06:55.865Z,12.28
2019-03-23T12:07:55.873Z,12.13
2019-03-23T12:08:55.867Z,12.20
2019-03-23T12:09:56.130Z,12.13
2019-03-23T12:11:02.842Z,11.98
2019-03-23T12:11:56.828Z,11.96
2019-03-23T12:12:55.804Z,11.94
2019-03-23T12:13:55.784Z,11.76
2019-03-23T12:14:55.775Z,11.73
2019-03-23T12:15:55.760Z,11.69
2019-03-23T12:16:55.774Z,11.83
2019-03-23T12:17:55.741Z,11.86
2019-03-23T12:18:55.730Z,11.79
2019-03-23T12:19:55.718Z,11.78
2019-03-23T12:20:55.710Z,12.02
2019-03-23T12:21:55.710Z,11.98
2019-03-23T12:22:55.702Z,11.69
2019-03-23T12:23:55.671Z,11.83
2019-03-23T12:24:55.662Z,11.62
2019-03-23T12:25:55.651Z,11.62
2019-03-23T12:26:55.637Z,11.57
2019-03-23T12:27:55.642Z,11.52
2019-03-23T12:28:55.613Z,11.44
2019-03-23T12:29:55.626Z,11.22
2019-03-23T12:30:55.597Z,11.33
2019-03-23T12:31:55.582Z,11.10
2019-03-23T12:32:55.571Z,11.25
2019-03-23T12:33:55.554Z,11.24
2019-03-23T12:34:55.576Z,11.19
2019-03-23T12:35:55.532Z,11.15
2019-03-23T12:36:55.522Z,11.29
2019-03-23T12:37:55.511Z,11.27
2019-03-23T12:38:55.505Z,11.24
2019-03-23T12:39:55.511Z,11.25
2019-03-23T12:40:55.482Z,11.33
2019-03-23T12:41:55.464Z,11.29
2019-03-23T12:42:55.454Z,11.17
2019-03-23T12:43:55.448Z,11.25
2019-03-23T12:44:55.453Z,11.22
2019-03-23T12:45:55.479Z,11.22
2019-03-23T12:46:55.408Z,11.25
2019-03-23T12:47:55.399Z,11.32
2019-03-23T12:48:55.411Z,11.36
2019-03-23T12:49:55.381Z,11.40
2019-03-23T12:50:55.363Z,11.39
2019-03-23T12:51:55.395Z,11.43
2019-03-23T12:52:57.387Z,11.51
2019-03-23T12:53:55.335Z,11.60
2019-03-23T12:54:55.317Z,11.62
2019-03-23T12:55:55.306Z,11.72
2019-03-23T12:56:55.319Z,11.54
2019-03-23T12:57:55.282Z,11.37
2019-03-23T12:58:55.273Z,11.43
2019-03-23T12:59:55.260Z,11.40
2019-03-23T13:00:55.276Z,11.42
2019-03-23T13:01:55.272Z,11.40
2019-03-23T13:02:55.232Z,11.42
2019-03-23T13:03:55.219Z,11.49
2019-03-23T13:04:55.207Z,11.39
2019-03-23T13:05:55.194Z,11.43
2019-03-23T13:06:55.211Z,11.39
2019-03-23T13:07:55.173Z,11.44
2019-03-23T13:08:55.158Z,11.60